Time;durP1;ratioP1;P1;durP2;ratioP2;P2;SDS_P1;SDS_P2;PMS_P1;PMS_P2;Temp;Humidity;BMP_temperature;BMP_pressure;BME280_temperature;BME280_humidity;BME280_pressure;Samples;Min_cycle;Max_cycle;Signal;HPM_P1;HPM_P2
2022/01/09 00:00:38;;;;;;;0.35;0.20;;;13.80;50.10;;;;;;5114294;28;20043;-69
2022/01/09 00:03:04;;;;;;;0.50;0.10;;;13.80;50.10;;;;;;5114141;28;20046;-66
2022/01/09 00:05:30;;;;;;;0.95;0.13;;;13.80;50.10;;;;;;5115322;28;20040;-68
2022/01/09 00:07:59;;;;;;;0.40;0.20;;;13.80;50.10;;;;;;5114283;28;20364;-66
2022/01/09 00:10:30;;;;;;;0.30;0.13;;;13.80;50.10;;;;;;5114049;28;20046;-66
2022/01/09 00:12:56;;;;;;;0.82;0.20;;;13.80;50.20;;;;;;5113879;28;20039;-66
2022/01/09 00:15:21;;;;;;;1.65;0.25;;;13.80;50.20;;;;;;5114980;28;20035;-66
2022/01/09 00:17:47;;;;;;;0.40;0.20;;;13.80;50.20;;;;;;5114005;28;20039;-66
2022/01/09 00:20:14;;;;;;;0.30;0.10;;;13.80;50.20;;;;;;5114937;28;20046;-68
2022/01/09 00:22:45;;;;;;;0.93;0.20;;;13.80;50.10;;;;;;5113214;28;20127;-66
2022/01/09 00:25:14;;;;;;;0.32;0.10;;;13.80;50.20;;;;;;5113591;28;20072;-68
2022/01/09 00:27:40;;;;;;;0.93;0.20;;;13.80;50.20;;;;;;5114899;28;20036;-69
2022/01/09 00:30:11;;;;;;;1.77;0.30;;;13.80;50.20;;;;;;5113358;28;20085;-68
2022/01/09 00:32:36;;;;;;;0.80;0.25;;;13.80;50.20;;;;;;5113527;28;20040;-68
2022/01/09 00:35:03;;;;;;;0.65;0.25;;;13.80;50.20;;;;;;5114797;28;20028;-69
2022/01/09 00:37:33;;;;;;;0.30;0.10;;;13.80;50.20;;;;;;5113593;28;20043;-66
2022/01/09 00:39:58;;;;;;;0.40;0.20;;;13.80;50.20;;;;;;5113307;28;20042;-66
2022/01/09 00:42:27;;;;;;;0.93;0.30;;;13.80;50.20;;;;;;5113532;28;20122;-68
2022/01/09 00:44:53;;;;;;;0.30;0.10;;;13.80;50.30;;;;;;5113424;28;20107;-66
2022/01/09 00:47:18;;;;;;;0.40;0.10;;;13.80;50.20;;;;;;5114482;28;20459;-66
2022/01/09 00:49:44;;;;;;;0.45;0.20;;;13.80;50.20;;;;;;5112646;28;20062;-66
2022/01/09 00:52:10;;;;;;;0.68;0.30;;;13.80;50.30;;;;;;5114488;28;20051;-69
2022/01/09 00:54:35;;;;;;;0.38;0.20;;;13.80;50.20;;;;;;5113090;28;20514;-67
2022/01/09 00:57:01;;;;;;;0.65;0.30;;;13.80;50.20;;;;;;5113288;28;20069;-66
2022/01/09 00:59:27;;;;;;;0.60;0.10;;;13.80;50.30;;;;;;5112888;28;20073;-66
2022/01/09 01:01:52;;;;;;;0.52;0.20;;;13.80;50.30;;;;;;5113161;28;20046;-68
2022/01/09 01:04:18;;;;;;;0.63;0.15;;;13.80;50.30;;;;;;5112891;28;20088;-68
2022/01/09 01:06:44;;;;;;;0.50;0.20;;;13.80;50.30;;;;;;5112802;28;20088;-68
2022/01/09 01:09:10;;;;;;;0.45;0.17;;;13.80;50.30;;;;;;5112942;28;20031;-66
2022/01/09 01:11:35;;;;;;;0.68;0.20;;;13.80;50.30;;;;;;5114375;28;20039;-66
2022/01/09 01:14:01;;;;;;;0.35;0.15;;;13.80;50.30;;;;;;5112497;28;20078;-68
2022/01/09 01:16:27;;;;;;;0.68;0.20;;;13.80;50.40;;;;;;5114155;28;20063;-66
2022/01/09 01:18:55;;;;;;;0.50;0.20;;;13.80;50.40;;;;;;5112865;28;20126;-66
2022/01/09 01:21:23;;;;;;;0.93;0.30;;;13.80;50.40;;;;;;5112794;28;20090;-66
2022/01/09 01:23:51;;;;;;;0.50;0.10;;;13.80;50.40;;;;;;5113733;28;20032;-66
2022/01/09 01:26:17;;;;;;;0.70;0.20;;;13.80;50.40;;;;;;5112657;28;20447;-68
2022/01/09 01:28:43;;;;;;;1.05;0.20;;;13.80;50.50;;;;;;5112218;28;20126;-66
2022/01/09 01:31:12;;;;;;;0.65;0.20;;;13.70;50.40;;;;;;5112303;28;20040;-66
2022/01/09 01:33:38;;;;;;;1.23;0.20;;;13.80;50.50;;;;;;5111474;28;20035;-69
2022/01/09 01:36:04;;;;;;;0.88;0.20;;;13.80;50.50;;;;;;5112263;28;20043;-67
2022/01/09 01:38:30;;;;;;;0.63;0.20;;;13.80;50.50;;;;;;5112155;28;20048;-68
2022/01/09 01:40:58;;;;;;;0.52;0.20;;;13.70;50.40;;;;;;5113508;28;20035;-67
2022/01/09 01:43:24;;;;;;;0.30;0.20;;;13.80;50.50;;;;;;5112276;28;20039;-70
2022/01/09 01:45:50;;;;;;;0.40;0.13;;;13.80;50.50;;;;;;5112309;28;20399;-69
2022/01/09 01:48:16;;;;;;;0.57;0.20;;;13.80;50.50;;;;;;5112070;28;20040;-66
2022/01/09 01:50:42;;;;;;;0.47;0.20;;;13.80;50.50;;;;;;5113115;28;20051;-69
2022/01/09 01:53:13;;;;;;;0.40;0.10;;;13.70;50.50;;;;;;5113099;28;20118;-66
2022/01/09 01:55:40;;;;;;;0.60;0.20;;;13.70;50.60;;;;;;5113200;28;20043;-66
2022/01/09 01:58:11;;;;;;;0.60;0.20;;;13.80;50.60;;;;;;5111920;28;20423;-66
2022/01/09 02:00:38;;;;;;;0.40;0.30;;;13.70;50.60;;;;;;5111902;28;20056;-66
2022/01/09 02:03:04;;;;;;;0.55;0.20;;;13.80;50.70;;;;;;5111679;28;20212;-66
2022/01/09 02:05:30;;;;;;;0.50;0.20;;;13.80;50.70;;;;;;5111741;28;20089;-66
2022/01/09 02:08:01;;;;;;;0.70;0.20;;;13.80;50.70;;;;;;5111597;28;20055;-65
2022/01/09 02:10:28;;;;;;;1.05;0.20;;;13.80;50.70;;;;;;5111498;28;20119;-66
2022/01/09 02:12:57;;;;;;;0.40;0.20;;;13.70;50.60;;;;;;5112793;28;20039;-66
2022/01/09 02:18:12;;;;;;;0.98;0.20;;;13.70;50.70;;;;;;5130228;27;20185;-69
2022/01/09 02:20:39;;;;;;;0.20;0.10;;;13.70;50.70;;;;;;5129043;28;20043;-66
2022/01/09 02:23:07;;;;;;;0.45;0.20;;;13.70;50.70;;;;;;5128930;28;20047;-66
2022/01/09 02:25:34;;;;;;;0.32;0.17;;;13.80;50.70;;;;;;5128828;28;20061;-66
2022/01/09 02:27:59;;;;;;;0.40;0.20;;;13.70;51.50;;;;;;5128914;28;20543;-66
2022/01/09 02:30:25;;;;;;;0.15;0.10;;;13.80;50.80;;;;;;5129271;28;20039;-70
2022/01/09 02:32:51;;;;;;;0.22;0.10;;;13.80;50.80;;;;;;5128806;28;20398;-66
2022/01/09 02:35:17;;;;;;;0.63;0.20;;;13.80;50.80;;;;;;5130034;28;20035;-66
2022/01/09 02:37:43;;;;;;;0.30;0.10;;;13.70;50.70;;;;;;5128555;28;20125;-66
2022/01/09 02:40:08;;;;;;;0.55;0.20;;;13.80;50.80;;;;;;5128508;28;20043;-66
2022/01/09 02:42:34;;;;;;;0.55;0.20;;;13.70;50.70;;;;;;5128871;28;20050;-66
2022/01/09 02:45:01;;;;;;;0.95;0.20;;;13.70;50.70;;;;;;5128817;28;20070;-66
2022/01/09 02:47:31;;;;;;;0.10;0.10;;;13.80;50.80;;;;;;5129944;27;20390;-69
2022/01/09 02:50:03;;;;;;;0.35;0.10;;;13.80;50.80;;;;;;5128395;28;20155;-68
2022/01/09 02:52:34;;;;;;;0.38;0.10;;;13.70;50.80;;;;;;5128636;28;20051;-69
2022/01/09 02:55:15;;;;;;;1.05;0.20;;;13.80;50.80;;;;;;5128295;28;20075;-69
2022/01/09 02:57:43;;;;;;;1.50;0.22;;;13.80;50.80;;;;;;5128385;27;20036;-66
2022/01/09 03:00:12;;;;;;;1.05;0.40;;;13.80;50.90;;;;;;5129924;27;20426;-69
2022/01/09 03:02:37;;;;;;;0.30;0.10;;;13.70;50.80;;;;;;5111414;28;20101;-66
2022/01/09 03:05:03;;;;;;;0.40;0.10;;;13.80;50.90;;;;;;5128426;28;20502;-69
2022/01/09 03:07:30;;;;;;;0.20;0.10;;;13.80;50.90;;;;;;5128065;28;20035;-66
2022/01/09 03:09:55;;;;;;;0.38;0.10;;;13.80;51.00;;;;;;5128313;28;20108;-66
2022/01/09 03:12:22;;;;;;;0.50;0.10;;;13.80;51.00;;;;;;5128089;28;20043;-67
2022/01/09 03:14:48;;;;;;;0.60;0.10;;;13.80;51.00;;;;;;5128168;28;20043;-68
2022/01/09 03:17:14;;;;;;;0.60;0.13;;;13.80;51.00;;;;;;5127796;28;20505;-69
2022/01/09 03:19:39;;;;;;;0.50;0.20;;;13.80;51.00;;;;;;5128028;28;20066;-69
2022/01/09 03:22:08;;;;;;;0.47;0.15;;;13.80;51.00;;;;;;5128305;28;20498;-69
2022/01/09 03:24:34;;;;;;;0.20;0.10;;;13.80;51.00;;;;;;5128054;28;20431;-69
2022/01/09 03:27:03;;;;;;;0.93;0.10;;;13.80;51.10;;;;;;5127715;28;20043;-66
2022/01/09 03:29:29;;;;;;;0.43;0.10;;;13.80;51.00;;;;;;5114066;28;20169;-66
2022/01/09 03:31:55;;;;;;;1.60;0.20;;;13.80;51.10;;;;;;5113873;28;20043;-66
2022/01/09 03:34:21;;;;;;;1.05;0.20;;;13.80;51.10;;;;;;5114189;28;20028;-66
2022/01/09 03:36:46;;;;;;;0.85;0.20;;;13.80;51.10;;;;;;5113819;28;20312;-69
2022/01/09 03:39:12;;;;;;;0.63;0.10;;;13.80;51.10;;;;;;5114063;28;20372;-69
2022/01/09 03:41:37;;;;;;;1.92;0.20;;;13.80;51.10;;;;;;5113776;28;20039;-66
2022/01/09 03:44:04;;;;;;;1.52;0.20;;;13.80;51.10;;;;;;5113858;28;20040;-66
2022/01/09 03:46:30;;;;;;;1.20;0.20;;;13.80;51.20;;;;;;5113676;28;20043;-68
2022/01/09 03:48:55;;;;;;;1.42;0.15;;;13.80;51.20;;;;;;5113612;28;20054;-66
2022/01/09 03:51:24;;;;;;;1.05;0.20;;;13.80;51.30;;;;;;5113553;28;20118;-69
2022/01/09 03:53:50;;;;;;;2.20;0.20;;;13.80;51.30;;;;;;5113552;28;20096;-66
2022/01/09 03:56:16;;;;;;;2.75;0.28;;;13.80;51.30;;;;;;5113609;28;20047;-66
2022/01/09 03:58:42;;;;;;;0.90;0.20;;;13.80;51.40;;;;;;5114826;28;20040;-66
2022/01/09 04:01:08;;;;;;;0.60;0.20;;;13.80;51.40;;;;;;5113563;28;20042;-66
2022/01/09 04:03:34;;;;;;;1.67;0.20;;;13.80;51.40;;;;;;5113681;28;20047;-66
2022/01/09 04:06:01;;;;;;;2.40;0.17;;;13.80;51.40;;;;;;5113563;28;20035;-66
2022/01/09 04:08:27;;;;;;;1.13;0.28;;;13.70;51.40;;;;;;5114453;28;20119;-66
2022/01/09 04:10:53;;;;;;;3.05;0.73;;;13.80;51.40;;;;;;5113147;28;20232;-66
2022/01/09 04:13:19;;;;;;;3.30;0.45;;;13.80;51.50;;;;;;5113308;28;20043;-66
2022/01/09 04:15:47;;;;;;;2.53;0.60;;;13.80;51.40;;;;;;5114034;28;20478;-66
2022/01/09 04:18:15;;;;;;;3.22;0.40;;;13.80;51.40;;;;;;5112863;28;20055;-68
2022/01/09 04:20:41;;;;;;;4.00;0.60;;;13.80;51.40;;;;;;5113416;28;20375;-66
2022/01/09 04:23:07;;;;;;;1.40;0.30;;;13.80;51.40;;;;;;5112824;28;20039;-69
2022/01/09 04:25:32;;;;;;;3.83;0.50;;;13.80;51.40;;;;;;5113082;28;20071;-68
2022/01/09 04:27:58;;;;;;;3.00;0.40;;;13.80;51.40;;;;;;5113091;28;20444;-68
2022/01/09 04:30:24;;;;;;;1.70;0.40;;;13.80;51.40;;;;;;5112788;28;20092;-69
2022/01/09 04:32:50;;;;;;;3.17;0.43;;;13.80;51.40;;;;;;5113989;28;20145;-66
2022/01/09 04:35:15;;;;;;;1.98;0.40;;;13.80;51.40;;;;;;5113930;28;20114;-66
2022/01/09 04:37:44;;;;;;;3.85;0.50;;;13.80;51.40;;;;;;5113702;28;20040;-68
2022/01/09 04:40:12;;;;;;;3.05;0.43;;;13.80;51.40;;;;;;5112941;28;20165;-68
2022/01/09 04:42:49;;;;;;;2.13;0.40;;;13.80;51.40;;;;;;5112536;28;20172;-69
2022/01/09 04:45:16;;;;;;;3.20;0.68;;;13.80;51.40;;;;;;5112619;28;20273;-69
2022/01/09 04:47:46;;;;;;;2.72;0.63;;;13.80;51.40;;;;;;5112643;28;20116;-69
2022/01/09 04:50:17;;;;;;;4.20;0.50;;;13.80;51.40;;;;;;5112576;28;20039;-66
2022/01/09 04:52:43;;;;;;;2.78;0.38;;;13.80;51.40;;;;;;5112296;28;20079;-69
2022/01/09 04:55:10;;;;;;;4.35;0.70;;;13.90;51.50;;;;;;5112562;28;20055;-68
2022/01/09 04:57:36;;;;;;;5.28;0.80;;;13.80;51.50;;;;;;5112218;28;20062;-67
2022/01/09 05:00:04;;;;;;;2.50;0.60;;;13.80;51.50;;;;;;5112440;28;20035;-66
2022/01/09 05:02:29;;;;;;;2.00;0.40;;;13.80;51.50;;;;;;5113640;28;20436;-68
2022/01/09 05:04:55;;;;;;;4.38;0.55;;;13.80;51.50;;;;;;5113296;28;20043;-69
2022/01/09 05:07:21;;;;;;;2.90;0.70;;;13.80;51.50;;;;;;5112211;28;20051;-66
2022/01/09 05:09:46;;;;;;;5.07;1.23;;;13.80;51.60;;;;;;5113198;28;20039;-69
2022/01/09 05:12:12;;;;;;;5.53;0.63;;;13.80;51.60;;;;;;5113327;28;20403;-66
2022/01/09 05:14:38;;;;;;;1.98;0.43;;;13.80;51.60;;;;;;5113112;28;20091;-66
2022/01/09 05:17:06;;;;;;;3.75;0.77;;;13.80;51.60;;;;;;5111608;28;20437;-69
2022/01/09 05:19:34;;;;;;;2.15;0.40;;;13.70;51.60;;;;;;5111755;28;20059;-66
2022/01/09 05:22:01;;;;;;;2.65;0.47;;;13.70;51.60;;;;;;5111770;28;20043;-69
2022/01/09 05:24:27;;;;;;;3.28;0.50;;;13.70;51.70;;;;;;5111972;28;20047;-66
2022/01/09 05:26:54;;;;;;;2.95;0.50;;;13.70;51.60;;;;;;5112995;28;20043;-69
2022/01/09 05:29:20;;;;;;;3.95;0.50;;;13.70;51.70;;;;;;5111922;28;20119;-69
2022/01/09 05:31:48;;;;;;;2.03;1.00;;;13.60;51.60;;;;;;5111737;28;20639;-67
2022/01/09 05:34:14;;;;;;;4.97;0.80;;;13.60;51.60;;;;;;5111794;28;20055;-66
2022/01/09 05:36:40;;;;;;;4.45;0.50;;;13.60;52.40;;;;;;5111538;28;20120;-66
2022/01/09 05:39:06;;;;;;;5.30;0.65;;;13.60;51.60;;;;;;5113028;28;20111;-66
2022/01/09 05:41:32;;;;;;;4.47;0.60;;;13.60;51.70;;;;;;5112884;28;20038;-68
2022/01/09 05:43:57;;;;;;;3.53;0.45;;;13.70;51.70;;;;;;5111472;28;20031;-66
2022/01/09 05:46:23;;;;;;;2.92;0.30;;;13.70;51.70;;;;;;5111589;28;20036;-69
2022/01/09 05:48:49;;;;;;;3.85;0.65;;;13.70;51.60;;;;;;5111363;28;20433;-67
2022/01/09 05:51:14;;;;;;;3.53;0.65;;;13.70;51.60;;;;;;5110965;28;20070;-66
2022/01/09 05:53:40;;;;;;;4.50;0.52;;;13.90;51.50;;;;;;5111305;28;20043;-66
2022/01/09 05:56:09;;;;;;;3.92;0.50;;;14.00;51.20;;;;;;5111379;28;20052;-66
2022/01/09 05:58:35;;;;;;;3.05;0.40;;;14.20;50.90;;;;;;5111246;28;20031;-68
2022/01/09 06:01:03;;;;;;;3.08;0.60;;;14.40;50.50;;;;;;5111572;28;20047;-66
2022/01/09 06:03:29;;;;;;;2.63;0.30;;;14.70;50.00;;;;;;5111529;28;20067;-69
2022/01/09 06:05:58;;;;;;;5.57;0.60;;;15.10;49.50;;;;;;5111047;28;20544;-67
2022/01/09 06:08:23;;;;;;;3.40;0.32;;;15.50;48.70;;;;;;5112504;28;20032;-68
2022/01/09 06:10:55;;;;;;;4.40;1.00;;;16.00;47.80;;;;;;5112369;28;20028;-70
2022/01/09 06:13:24;;;;;;;2.70;0.40;;;16.50;46.80;;;;;;5112366;28;20451;-66
2022/01/09 06:15:50;;;;;;;4.03;0.40;;;17.00;45.80;;;;;;5112175;28;20492;-67
2022/01/09 06:18:20;;;;;;;3.20;0.55;;;17.50;45.00;;;;;;5110856;28;20143;-68
2022/01/09 06:20:47;;;;;;;3.63;0.50;;;17.90;44.30;;;;;;5110903;28;20040;-67
2022/01/09 06:23:12;;;;;;;5.03;0.65;;;18.10;43.80;;;;;;5112511;28;20059;-67
2022/01/09 06:25:38;;;;;;;3.10;0.60;;;18.30;43.40;;;;;;5112180;28;20141;-68
2022/01/09 06:28:04;;;;;;;2.38;0.70;;;18.40;43.20;;;;;;5112316;28;20058;-68
2022/01/09 06:30:29;;;;;;;2.63;0.40;;;18.50;43.00;;;;;;5111321;28;20035;-66
2022/01/09 06:32:55;;;;;;;3.22;0.30;;;18.60;42.80;;;;;;5110804;28;20052;-68
2022/01/09 06:35:21;;;;;;;2.83;0.30;;;18.60;42.60;;;;;;5112035;28;20044;-66
2022/01/09 06:37:46;;;;;;;3.33;0.40;;;18.70;42.50;;;;;;5111952;28;20035;-69
2022/01/09 06:40:12;;;;;;;4.10;0.50;;;18.70;42.40;;;;;;5112434;28;20046;-68
2022/01/09 06:42:38;;;;;;;3.83;0.50;;;18.70;42.40;;;;;;5112033;28;20382;-68
2022/01/09 06:45:07;;;;;;;2.45;0.80;;;18.60;42.30;;;;;;5112103;28;20063;-67
2022/01/09 06:47:33;;;;;;;2.95;0.43;;;18.50;42.50;;;;;;5111864;28;20498;-66
2022/01/09 06:49:59;;;;;;;2.72;0.30;;;18.50;42.30;;;;;;5110582;28;20130;-69
2022/01/09 06:52:25;;;;;;;2.47;0.32;;;18.50;42.40;;;;;;5110778;28;20051;-70
2022/01/09 06:54:50;;;;;;;3.33;0.85;;;18.30;42.40;;;;;;5112021;28;20032;-68
2022/01/09 06:57:16;;;;;;;3.03;0.45;;;18.20;42.50;;;;;;5110545;28;20040;-67
2022/01/09 06:59:42;;;;;;;2.38;0.40;;;18.20;42.70;;;;;;5110908;28;20126;-66
2022/01/09 07:02:07;;;;;;;2.90;0.40;;;18.00;42.80;;;;;;5110957;28;20039;-68
2022/01/09 07:04:33;;;;;;;3.08;0.30;;;17.90;42.90;;;;;;5115104;28;20486;-66
2022/01/09 07:06:59;;;;;;;2.22;0.40;;;17.80;43.00;;;;;;5114451;28;20049;-68
2022/01/09 07:09:24;;;;;;;2.85;0.38;;;17.70;43.20;;;;;;5114490;28;20039;-69
2022/01/09 07:11:50;;;;;;;4.20;0.30;;;17.50;43.30;;;;;;5114364;28;20044;-68
2022/01/09 07:14:16;;;;;;;1.67;0.40;;;17.50;43.50;;;;;;5115663;28;20027;-67
2022/01/09 07:16:42;;;;;;;5.07;0.77;;;17.40;43.70;;;;;;5115476;28;20044;-68
2022/01/09 07:19:07;;;;;;;2.30;0.30;;;17.30;43.80;;;;;;5115457;28;20395;-66
2022/01/09 07:21:33;;;;;;;3.83;0.52;;;17.10;44.00;;;;;;5114407;28;20126;-69
2022/01/09 07:23:58;;;;;;;2.88;0.30;;;17.00;44.10;;;;;;5114362;28;20040;-67
2022/01/09 07:26:24;;;;;;;2.70;0.40;;;16.90;44.30;;;;;;5114426;28;20503;-66
2022/01/09 07:28:52;;;;;;;1.80;0.30;;;16.80;44.50;;;;;;5097669;28;20422;-66
2022/01/09 07:31:21;;;;;;;2.70;0.45;;;16.70;44.70;;;;;;5115381;28;20039;-67
2022/01/09 07:33:47;;;;;;;3.50;0.40;;;16.60;44.80;;;;;;5113811;28;20513;-68
2022/01/09 07:36:14;;;;;;;2.95;0.50;;;16.50;45.00;;;;;;5113772;28;20040;-68
2022/01/09 07:38:40;;;;;;;2.88;0.65;;;16.40;45.20;;;;;;5115553;28;20086;-68
2022/01/09 07:41:12;;;;;;;2.53;0.32;;;16.30;45.30;;;;;;5115245;28;20497;-66
2022/01/09 07:43:38;;;;;;;1.55;0.30;;;16.20;45.50;;;;;;5113939;28;20122;-67
2022/01/09 07:46:04;;;;;;;2.05;0.20;;;16.10;45.70;;;;;;5115422;27;20458;-67
2022/01/09 07:48:29;;;;;;;2.55;0.20;;;16.00;45.80;;;;;;5113764;28;20050;-66
2022/01/09 07:50:55;;;;;;;2.92;0.65;;;15.90;46.00;;;;;;5113870;28;20053;-69
2022/01/09 07:53:23;;;;;;;2.17;0.20;;;15.80;46.10;;;;;;5114875;28;20104;-66
2022/01/09 07:55:51;;;;;;;2.22;0.55;;;15.80;46.30;;;;;;5113522;28;20100;-66
2022/01/09 07:58:17;;;;;;;4.13;0.95;;;15.70;46.40;;;;;;5113675;28;20065;-69
2022/01/09 08:00:43;;;;;;;3.10;0.28;;;15.60;46.50;;;;;;5113384;28;20036;-69
2022/01/09 08:03:10;;;;;;;2.60;0.57;;;15.60;46.70;;;;;;5114693;28;20039;-66
2022/01/09 08:05:36;;;;;;;4.63;0.47;;;15.50;46.80;;;;;;5113451;28;20039;-66
2022/01/09 08:08:01;;;;;;;2.67;0.28;;;15.40;46.90;;;;;;5113250;28;20092;-68
2022/01/09 08:10:27;;;;;;;2.95;0.40;;;15.40;47.10;;;;;;5114548;28;20130;-68
2022/01/09 08:12:53;;;;;;;2.22;0.40;;;15.30;47.20;;;;;;5114565;28;20039;-69
2022/01/09 08:15:18;;;;;;;2.80;0.40;;;15.30;47.30;;;;;;5112938;28;20511;-68
2022/01/09 08:17:45;;;;;;;3.67;0.40;;;15.20;47.40;;;;;;5114063;28;20052;-66
2022/01/09 08:20:13;;;;;;;1.05;0.30;;;15.20;47.50;;;;;;5112992;28;20095;-66
2022/01/09 08:22:39;;;;;;;2.22;0.40;;;15.10;47.50;;;;;;5112962;28;20522;-69
2022/01/09 08:25:06;;;;;;;1.88;0.40;;;15.10;47.60;;;;;;5113159;28;20066;-66
2022/01/09 08:27:32;;;;;;;2.40;0.50;;;15.10;47.70;;;;;;5112947;28;20595;-66
2022/01/09 08:29:57;;;;;;;2.53;0.32;;;15.00;47.80;;;;;;5113102;28;20365;-66
2022/01/09 08:32:23;;;;;;;3.20;0.85;;;15.00;48.00;;;;;;5114171;28;20079;-66
2022/01/09 08:34:49;;;;;;;3.47;0.60;;;15.00;48.00;;;;;;5113020;28;20036;-66
2022/01/09 08:37:15;;;;;;;1.55;0.50;;;14.90;48.00;;;;;;5114137;28;20510;-66
2022/01/09 08:39:42;;;;;;;3.00;0.60;;;14.90;48.00;;;;;;5112709;28;20568;-68
2022/01/09 08:42:08;;;;;;;3.38;0.60;;;14.80;48.10;;;;;;5112654;28;20044;-66
2022/01/09 08:44:34;;;;;;;3.20;0.47;;;14.80;48.20;;;;;;5112867;28;20043;-69
2022/01/09 08:47:00;;;;;;;2.47;0.70;;;14.80;48.30;;;;;;5113784;28;20425;-67
2022/01/09 08:49:25;;;;;;;2.38;0.60;;;14.70;48.40;;;;;;5113807;28;20390;-66
2022/01/09 08:51:51;;;;;;;4.05;0.50;;;14.70;48.40;;;;;;5112278;28;20479;-68
2022/01/09 08:54:17;;;;;;;3.25;0.70;;;14.70;48.60;;;;;;5112702;28;20038;-66
2022/01/09 08:56:42;;;;;;;2.08;0.50;;;14.60;48.70;;;;;;5112236;28;20050;-68
2022/01/09 08:59:08;;;;;;;2.65;0.60;;;14.60;48.70;;;;;;5113708;28;20036;-68
2022/01/09 09:01:33;;;;;;;2.03;0.32;;;14.60;48.80;;;;;;5113439;28;20274;-69
2022/01/09 09:03:59;;;;;;;1.90;0.40;;;14.50;48.80;;;;;;5112238;28;20066;-69
2022/01/09 09:06:27;;;;;;;2.50;0.60;;;14.50;48.90;;;;;;5112021;28;20092;-67
2022/01/09 09:08:53;;;;;;;3.15;0.50;;;14.50;49.00;;;;;;5112579;28;20142;-66
2022/01/09 09:11:19;;;;;;;2.50;0.40;;;14.50;49.00;;;;;;5112281;28;20531;-68
2022/01/09 09:13:44;;;;;;;1.83;0.40;;;14.40;49.00;;;;;;5113258;28;20675;-66
2022/01/09 09:16:10;;;;;;;2.15;0.50;;;14.50;49.10;;;;;;5113182;28;20039;-66
2022/01/09 09:18:36;;;;;;;2.35;0.52;;;14.50;49.10;;;;;;5112770;28;20099;-68
2022/01/09 09:21:02;;;;;;;4.05;0.60;;;14.50;49.20;;;;;;5112098;28;20070;-67
2022/01/09 09:23:28;;;;;;;2.50;0.40;;;14.40;49.10;;;;;;5111730;28;20126;-69
2022/01/09 09:25:54;;;;;;;3.20;0.47;;;14.40;49.10;;;;;;5111244;28;20173;-67
2022/01/09 09:28:22;;;;;;;2.80;0.40;;;14.40;49.20;;;;;;5111720;28;20108;-66
2022/01/09 09:30:48;;;;;;;2.67;0.40;;;14.40;49.20;;;;;;5113206;28;20051;-66
2022/01/09 09:33:13;;;;;;;1.70;0.50;;;14.40;49.10;;;;;;5111772;28;20043;-68
2022/01/09 09:35:39;;;;;;;3.75;0.30;;;14.40;49.10;;;;;;5111668;28;20622;-67
2022/01/09 09:38:05;;;;;;;1.48;0.32;;;14.40;49.10;;;;;;5112661;28;20038;-68
2022/01/09 09:40:32;;;;;;;2.83;0.55;;;14.40;49.10;;;;;;5112863;28;20521;-68
2022/01/09 09:42:58;;;;;;;2.20;0.40;;;14.40;49.10;;;;;;5112705;28;20116;-67
2022/01/09 09:45:25;;;;;;;3.03;0.30;;;14.40;49.10;;;;;;5111804;28;20036;-68
2022/01/09 09:47:51;;;;;;;1.33;0.30;;;14.40;49.10;;;;;;5111356;28;20506;-66
2022/01/09 09:50:19;;;;;;;2.35;0.32;;;14.40;49.10;;;;;;5112724;28;20433;-68
2022/01/09 09:52:46;;;;;;;3.03;0.40;;;14.40;49.10;;;;;;5112529;28;20053;-66
2022/01/09 09:55:13;;;;;;;1.65;0.40;;;14.40;49.10;;;;;;5111888;28;20062;-68
2022/01/09 09:57:39;;;;;;;3.15;0.50;;;14.40;49.20;;;;;;5112378;28;20501;-68
2022/01/09 10:00:12;;;;;;;3.17;0.47;;;14.40;49.10;;;;;;5111166;28;20222;-68
2022/01/09 10:02:42;;;;;;;2.38;0.40;;;14.40;49.20;;;;;;5112573;28;20039;-67
2022/01/09 10:05:08;;;;;;;2.22;0.70;;;14.40;49.20;;;;;;5111410;28;20475;-66
2022/01/09 10:07:34;;;;;;;4.03;0.60;;;14.40;49.20;;;;;;5111324;28;20440;-69
2022/01/09 10:10:03;;;;;;;2.78;0.50;;;14.40;49.20;;;;;;5112512;28;20039;-66
2022/01/09 10:12:33;;;;;;;1.83;0.30;;;14.30;49.20;;;;;;5111128;28;20115;-67
2022/01/09 10:15:01;;;;;;;3.15;0.50;;;14.30;49.20;;;;;;5111204;28;20035;-68
2022/01/09 10:17:27;;;;;;;2.60;0.60;;;14.30;49.20;;;;;;5112023;28;20062;-68
2022/01/09 10:33:26;;;;;;;3.25;0.60;;;14.30;49.20;;;;;;5158682;27;1166106;-66
2022/01/09 10:35:52;;;;;;;4.28;0.50;;;14.30;49.30;;;;;;5152975;27;20325;-68
2022/01/09 10:41:03;;;;;;;3.88;0.52;;;14.30;49.30;;;;;;5130249;27;20446;-66
2022/01/09 10:43:38;;;;;;;2.88;0.47;;;14.30;49.40;;;;;;5128987;28;20105;-69
2022/01/09 10:46:12;;;;;;;2.08;0.32;;;14.30;49.40;;;;;;5129075;28;20047;-68
2022/01/09 10:48:41;;;;;;;3.25;0.60;;;14.30;49.40;;;;;;5129251;28;20110;-68
2022/01/09 10:51:09;;;;;;;4.97;0.30;;;14.30;49.40;;;;;;5128746;27;20039;-67
2022/01/09 10:53:37;;;;;;;5.03;0.70;;;14.30;49.40;;;;;;5128756;28;20050;-66
2022/01/09 10:56:13;;;;;;;2.53;0.75;;;14.30;49.40;;;;;;5129890;27;20046;-69
2022/01/09 10:58:43;;;;;;;3.00;0.40;;;14.30;49.40;;;;;;5128852;28;20138;-68
2022/01/09 11:03:54;;;;;;;4.07;0.50;;;14.30;49.40;;;;;;5089088;28;20429;-69
2022/01/09 11:06:20;;;;;;;2.83;0.63;;;14.30;49.40;;;;;;5087953;28;20051;-69
2022/01/09 11:08:47;;;;;;;3.58;0.73;;;14.30;49.50;;;;;;5088105;28;20079;-68
2022/01/09 11:11:24;;;;;;;4.68;0.68;;;14.30;49.50;;;;;;5088293;28;20036;-69
2022/01/09 11:13:52;;;;;;;2.95;0.40;;;14.20;49.50;;;;;;5087982;28;20054;-66
2022/01/09 11:16:34;;;;;;;2.00;0.52;;;14.20;49.50;;;;;;5087890;28;20044;-68
2022/01/09 11:19:06;;;;;;;4.72;0.57;;;14.20;49.50;;;;;;5089148;28;20040;-68
2022/01/09 11:21:33;;;;;;;2.20;0.43;;;14.20;49.60;;;;;;5088101;28;20040;-66
2022/01/09 11:24:25;;;;;;;1.58;0.30;;;14.30;49.60;;;;;;5088042;28;20093;-69
2022/01/09 11:27:09;;;;;;;2.13;0.70;;;14.40;49.50;;;;;;5087869;28;20090;-69
2022/01/09 11:35:40;;;;;;;2.45;0.45;;;14.60;49.20;;;;;;5110030;27;20412;-67
2022/01/09 11:41:19;;;;;;;2.58;0.47;;;16.10;46.90;;;;;;5150898;27;20103;-66
2022/01/09 11:44:01;;;;;;;2.15;0.47;;;16.80;45.50;;;;;;5128928;28;20547;-68
2022/01/09 11:46:30;;;;;;;2.22;0.40;;;17.40;44.50;;;;;;5129123;28;20051;-71
2022/01/09 11:51:36;;;;;;;2.15;0.35;;;17.90;43.50;;;;;;5130173;27;20414;-67
2022/01/09 12:02:05;;;;;;;3.47;0.32;;;18.80;42.00;;;;;;5130196;27;20435;-69
2022/01/09 12:10:38;;;;;;;3.70;0.50;;;19.50;40.40;;;;;;5130129;27;20950;-66
2022/01/09 12:13:07;;;;;;;1.63;0.28;;;19.60;40.20;;;;;;5128833;28;20052;-68
2022/01/09 12:18:42;;;;;;;2.95;0.50;;;19.60;40.10;;;;;;5130149;27;20383;-68
2022/01/09 12:24:39;;;;;;;3.95;0.60;;;19.50;39.90;;;;;;5089307;28;20355;-67
2022/01/09 12:27:47;;;;;;;2.70;0.45;;;19.40;40.00;;;;;;5088129;28;20048;-66
2022/01/09 12:36:13;;;;;;;4.93;0.77;;;19.10;40.30;;;;;;5130288;27;20407;-69
2022/01/09 12:38:44;;;;;;;2.10;0.70;;;18.80;40.80;;;;;;5128889;28;20044;-69
2022/01/09 12:43:57;;;;;;;1.83;0.40;;;18.70;41.10;;;;;;5152149;27;1181416;-66
2022/01/09 12:46:23;;;;;;;4.57;0.70;;;18.40;41.50;;;;;;5153161;27;20290;-69
2022/01/09 12:48:53;;;;;;;3.00;0.85;;;18.20;41.70;;;;;;5153229;27;20034;-66
2022/01/09 12:51:18;;;;;;;2.55;0.40;;;18.10;41.90;;;;;;5152924;27;20038;-66
2022/01/09 12:53:49;;;;;;;4.25;0.52;;;18.00;42.20;;;;;;5153132;27;20137;-66
2022/01/09 12:56:16;;;;;;;;;;;17.90;42.40;;;;;;5153424;27;20042;-66
2022/01/09 12:58:44;;;;;;;3.00;0.50;;;17.70;42.40;;;;;;5152768;27;19963;-66
2022/01/09 13:03:52;;;;;;;2.15;0.43;;;17.60;42.80;;;;;;5130168;27;20432;-67
2022/01/09 13:06:34;;;;;;;2.42;0.50;;;17.40;43.20;;;;;;5129270;27;20383;-65
2022/01/09 13:09:04;;;;;;;3.67;0.47;;;17.20;43.30;;;;;;5129205;28;20043;-68
2022/01/09 13:11:31;;;;;;;2.23;0.60;;;17.10;43.60;;;;;;5129260;28;20043;-67
2022/01/09 13:13:58;;;;;;;2.63;0.63;;;17.00;43.80;;;;;;5128951;28;20269;-69
2022/01/09 13:16:29;;;;;;;3.55;0.70;;;16.90;44.00;;;;;;5128975;27;20043;-66
2022/01/09 13:21:40;;;;;;;2.45;0.57;;;16.80;44.30;;;;;;5115084;27;1170856;-66
2022/01/09 13:27:03;;;;;;;3.78;0.50;;;16.50;44.80;;;;;;5130327;27;20169;-68
2022/01/09 13:29:33;;;;;;;2.67;0.63;;;16.40;45.10;;;;;;5128923;28;20047;-68
2022/01/09 13:32:04;;;;;;;4.20;0.63;;;16.30;45.30;;;;;;5129274;28;20042;-66
2022/01/09 13:37:14;;;;;;;3.57;0.60;;;16.10;45.50;;;;;;5154565;27;1171324;-69
2022/01/09 13:39:42;;;;;;;4.20;0.80;;;16.10;45.80;;;;;;5153537;27;20268;-68
2022/01/09 13:42:11;;;;;;;2.92;0.50;;;16.00;45.90;;;;;;5153265;27;20053;-66
2022/01/09 13:44:40;;;;;;;3.25;0.50;;;15.90;46.00;;;;;;5171703;27;20488;-66
2022/01/09 13:47:12;;;;;;;2.45;0.40;;;15.90;46.20;;;;;;5152932;27;20117;-69
2022/01/09 13:49:59;;;;;;;2.08;0.40;;;15.80;46.30;;;;;;5153114;27;20078;-68
2022/01/09 13:52:28;;;;;;;2.33;0.63;;;15.70;46.40;;;;;;5153064;27;20098;-66
2022/01/09 13:58:03;;;;;;;2.70;0.60;;;15.70;46.60;;;;;;5130242;27;20784;-66
2022/01/09 14:00:31;;;;;;;2.85;0.52;;;15.50;46.80;;;;;;5128630;28;20301;-67
2022/01/09 14:02:59;;;;;;;3.88;0.50;;;15.50;47.00;;;;;;5129224;28;20043;-68
2022/01/09 14:05:27;;;;;;;1.95;0.50;;;15.40;47.10;;;;;;5129091;28;20092;-68